createdAt,value
2019-01-28T00:00:43.174Z,16.00
2019-01-28T00:03:10.815Z,16.17
2019-01-28T00:05:38.723Z,18.73
2019-01-28T00:08:06.337Z,15.40
2019-01-28T00:10:33.804Z,15.60
2019-01-28T00:13:01.408Z,18.07
2019-01-28T00:15:28.537Z,15.10
2019-01-28T00:17:55.774Z,20.90
2019-01-28T00:20:23.090Z,18.77
2019-01-28T00:22:50.062Z,15.67
2019-01-28T00:25:17.599Z,17.00
2019-01-28T00:27:45.301Z,17.50
2019-01-28T00:30:12.436Z,16.37
2019-01-28T00:32:39.787Z,17.20
2019-01-28T00:35:08.688Z,17.70
2019-01-28T00:37:36.155Z,17.47
2019-01-28T00:40:06.491Z,17.57
2019-01-28T00:42:33.887Z,18.57
2019-01-28T00:45:00.953Z,17.23
2019-01-28T00:47:28.292Z,17.33
2019-01-28T00:49:55.377Z,16.90
2019-01-28T00:52:22.792Z,17.40
2019-01-28T00:54:50.215Z,18.20
2019-01-28T00:57:17.814Z,16.70
2019-01-28T00:59:45.153Z,16.30
2019-01-28T01:02:13.386Z,16.50
2019-01-28T01:04:41.242Z,16.10
2019-01-28T01:07:08.914Z,17.27
2019-01-28T01:09:36.320Z,17.10
2019-01-28T01:12:04.702Z,16.23
2019-01-28T01:14:32.115Z,14.57
2019-01-28T01:16:59.005Z,14.70
2019-01-28T01:19:26.151Z,15.93
2019-01-28T01:21:53.261Z,14.87
2019-01-28T01:24:22.158Z,14.83
2019-01-28T01:26:49.521Z,15.73
2019-01-28T01:29:16.963Z,16.30
2019-01-28T01:31:44.251Z,14.93
2019-01-28T01:34:11.763Z,13.57
2019-01-28T01:36:39.240Z,17.10
2019-01-28T01:39:07.286Z,16.70
2019-01-28T01:41:34.824Z,16.10
2019-01-28T01:44:02.616Z,16.77
2019-01-28T01:46:30.176Z,15.70
2019-01-28T01:48:57.222Z,15.57
2019-01-28T01:51:24.842Z,15.80
2019-01-28T01:53:52.140Z,14.67
2019-01-28T01:56:19.542Z,15.43
2019-01-28T01:58:47.217Z,14.90
2019-01-28T02:01:14.468Z,14.80
2019-01-28T02:03:41.691Z,14.33
2019-01-28T02:06:08.897Z,12.40
2019-01-28T02:08:36.097Z,13.93
2019-01-28T02:11:03.465Z,12.33
2019-01-28T02:13:30.156Z,13.87
2019-01-28T02:15:57.524Z,12.07
2019-01-28T02:18:24.736Z,11.30
2019-01-28T02:20:51.998Z,12.40
2019-01-28T02:23:19.166Z,12.03
2019-01-28T02:25:46.507Z,13.17
2019-01-28T02:28:13.529Z,11.23
2019-01-28T02:30:40.731Z,12.20
2019-01-28T02:33:07.886Z,11.07
2019-01-28T02:35:35.231Z,10.63
2019-01-28T02:38:04.175Z,11.23
2019-01-28T02:40:31.533Z,11.73
2019-01-28T02:42:58.933Z,10.67
2019-01-28T02:45:28.259Z,10.43
2019-01-28T02:47:56.066Z,11.03
2019-01-28T02:50:26.591Z,9.13
2019-01-28T02:52:53.740Z,9.53
2019-01-28T02:55:39.875Z,11.10
2019-01-28T02:58:13.400Z,10.70
2019-01-28T03:00:40.524Z,10.83
2019-01-28T03:03:07.397Z,10.57
2019-01-28T03:05:34.283Z,10.80
2019-01-28T03:08:01.535Z,11.53
2019-01-28T03:10:28.577Z,10.17
2019-01-28T03:12:55.509Z,10.83
2019-01-28T03:15:22.500Z,9.83
2019-01-28T03:17:49.425Z,8.97
2019-01-28T03:20:17.859Z,10.23
2019-01-28T03:22:45.090Z,12.20
2019-01-28T03:25:14.465Z,11.20
2019-01-28T03:27:41.665Z,11.10
2019-01-28T03:30:11.775Z,11.30
2019-01-28T03:32:38.687Z,10.60
2019-01-28T03:35:08.010Z,11.20
2019-01-28T03:37:35.728Z,11.03
2019-01-28T03:40:06.459Z,10.87
2019-01-28T03:42:33.356Z,11.37
2019-01-28T03:45:00.562Z,10.53
2019-01-28T03:47:28.319Z,10.07
2019-01-28T03:49:56.040Z,10.97
2019-01-28T03:52:23.747Z,10.73
2019-01-28T03:54:50.965Z,9.57
2019-01-28T03:57:18.314Z,10.40
2019-01-28T03:59:45.451Z,9.20
2019-01-28T04:02:12.873Z,9.20
2019-01-28T04:04:40.228Z,10.40
2019-01-28T04:07:07.993Z,9.93
2019-01-28T04:09:35.565Z,10.60
2019-01-28T04:12:02.756Z,10.13
2019-01-28T04:14:29.893Z,9.43
2019-01-28T04:16:56.890Z,9.70
2019-01-28T04:19:24.084Z,10.50
2019-01-28T04:21:51.020Z,11.27
2019-01-28T04:24:17.940Z,10.87
2019-01-28T04:26:44.815Z,13.17
2019-01-28T04:29:12.120Z,13.77
2019-01-28T04:31:39.391Z,12.80
2019-01-28T04:34:06.610Z,14.00
2019-01-28T04:36:33.588Z,14.47
2019-01-28T04:39:00.659Z,13.63
2019-01-28T04:41:28.088Z,16.20
2019-01-28T04:43:55.247Z,16.73
2019-01-28T04:46:21.898Z,14.70
2019-01-28T04:48:48.612Z,16.93
2019-01-28T04:51:15.565Z,15.60
2019-01-28T04:53:42.150Z,16.07
2019-01-28T04:56:09.172Z,15.90
2019-01-28T04:58:36.159Z,14.23
2019-01-28T05:01:04.161Z,14.33
2019-01-28T05:03:31.726Z,13.30
2019-01-28T05:05:58.834Z,12.73
2019-01-28T05:08:25.634Z,14.13
2019-01-28T05:10:52.562Z,14.17
2019-01-28T05:13:19.665Z,14.40
2019-01-28T05:15:47.230Z,12.97
2019-01-28T05:18:14.388Z,11.90
2019-01-28T05:20:42.921Z,12.67
2019-01-28T05:23:10.380Z,13.27
2019-01-28T05:25:37.631Z,13.20
2019-01-28T05:28:04.837Z,14.23
2019-01-28T05:30:32.096Z,12.87
2019-01-28T05:32:59.376Z,13.23
2019-01-28T05:35:26.550Z,13.60
2019-01-28T05:37:53.501Z,12.93
2019-01-28T05:40:22.467Z,12.10
2019-01-28T05:42:49.684Z,12.67
2019-01-28T05:45:18.524Z,12.50
2019-01-28T05:47:45.570Z,12.53
2019-01-28T05:50:14.679Z,11.20
2019-01-28T05:52:42.416Z,12.53
2019-01-28T05:55:17.310Z,13.27
2019-01-28T05:57:45.029Z,12.70
2019-01-28T06:00:18.925Z,13.23
2019-01-28T06:02:45.795Z,12.20
2019-01-28T06:05:14.086Z,13.20
2019-01-28T06:07:41.317Z,13.30
2019-01-28T06:10:11.718Z,11.57
2019-01-28T06:12:38.570Z,12.10
2019-01-28T06:15:11.594Z,13.10
2019-01-28T06:17:39.262Z,11.43
2019-01-28T06:20:13.336Z,14.50
2019-01-28T06:22:40.755Z,11.43
2019-01-28T06:25:08.587Z,12.67
2019-01-28T06:27:36.222Z,11.83
2019-01-28T06:30:06.863Z,13.37
2019-01-28T06:32:34.557Z,13.10
2019-01-28T06:35:02.418Z,15.00
2019-01-28T06:37:29.869Z,13.43
2019-01-28T06:39:57.168Z,12.70
2019-01-28T06:42:24.113Z,13.03
2019-01-28T06:44:51.111Z,11.50
2019-01-28T06:47:18.023Z,11.93
2019-01-28T06:49:44.908Z,14.07
2019-01-28T06:52:12.127Z,11.93
2019-01-28T06:54:39.147Z,12.60
2019-01-28T06:57:06.248Z,12.20
2019-01-28T06:59:33.000Z,11.70
2019-01-28T07:01:59.507Z,12.00
2019-01-28T07:04:26.881Z,11.03
2019-01-28T07:06:55.489Z,10.60
2019-01-28T07:09:22.421Z,12.67
2019-01-28T07:11:49.381Z,11.53
2019-01-28T07:14:17.420Z,12.60
2019-01-28T07:16:44.323Z,14.07
2019-01-28T07:19:11.097Z,12.50
2019-01-28T07:21:37.800Z,11.40
2019-01-28T07:24:04.871Z,15.63
2019-01-28T07:26:31.450Z,12.60
2019-01-28T07:28:58.088Z,13.27
2019-01-28T07:31:25.300Z,12.27
2019-01-28T07:33:52.148Z,14.63
2019-01-28T07:36:19.608Z,12.30
2019-01-28T07:38:47.453Z,13.47
2019-01-28T07:41:15.060Z,13.23
2019-01-28T07:43:42.058Z,13.43
2019-01-28T07:46:09.919Z,14.20
2019-01-28T07:48:37.005Z,14.03
2019-01-28T07:51:03.989Z,15.90
2019-01-28T07:53:31.200Z,13.77
2019-01-28T07:55:58.684Z,13.80
2019-01-28T07:58:26.598Z,13.90
2019-01-28T08:00:53.788Z,12.90
2019-01-28T08:03:20.759Z,14.70
2019-01-28T08:05:47.703Z,14.50
2019-01-28T08:08:15.146Z,14.13
2019-01-28T08:10:42.502Z,14.90
2019-01-28T08:13:11.585Z,13.70
2019-01-28T08:15:38.531Z,13.30
2019-01-28T08:18:10.545Z,15.37
2019-01-28T08:20:34.919Z,13.67
2019-01-28T08:23:02.166Z,14.37
2019-01-28T08:25:29.922Z,14.40
2019-01-28T08:31:32.311Z,13.90
2019-01-28T08:33:59.503Z,12.70
2019-01-28T08:36:26.122Z,14.20
2019-01-28T08:38:52.632Z,12.67
2019-01-28T08:41:20.101Z,13.87
2019-01-28T08:43:47.522Z,13.53
2019-01-28T08:46:14.909Z,13.53
2019-01-28T08:48:41.938Z,12.83
2019-01-28T08:51:08.932Z,12.77
2019-01-28T08:53:35.507Z,12.67
2019-01-28T08:56:02.350Z,12.73
2019-01-28T08:58:29.327Z,12.43
2019-01-28T09:00:56.748Z,13.53
2019-01-28T09:03:23.545Z,14.30
2019-01-28T09:05:50.453Z,12.93
2019-01-28T09:08:17.333Z,12.40
2019-01-28T09:10:44.316Z,13.80
2019-01-28T09:13:11.100Z,12.40
2019-01-28T09:15:37.919Z,11.80
2019-01-28T09:18:05.682Z,14.23
2019-01-28T09:20:32.637Z,11.57
2019-01-28T09:22:59.195Z,12.43
2019-01-28T09:25:26.433Z,11.90
2019-01-28T09:27:53.161Z,11.67
2019-01-28T09:30:25.242Z,12.43
2019-01-28T09:32:52.011Z,12.50
2019-01-28T09:35:18.726Z,12.20
2019-01-28T09:37:45.573Z,13.20
2019-01-28T09:40:20.820Z,12.60
2019-01-28T09:42:48.093Z,12.13
2019-01-28T09:45:17.995Z,11.53
2019-01-28T09:47:44.566Z,11.83
2019-01-28T09:50:12.606Z,12.00
2019-01-28T09:52:39.774Z,11.83
2019-01-28T09:55:09.779Z,12.43
2019-01-28T09:57:36.692Z,11.40
2019-01-28T10:00:08.074Z,13.00
2019-01-28T10:02:34.992Z,10.93
2019-01-28T10:05:02.142Z,12.40
2019-01-28T10:07:28.902Z,11.13
2019-01-28T10:09:55.935Z,10.97
2019-01-28T10:12:22.682Z,11.90
2019-01-28T10:14:49.387Z,11.80
2019-01-28T10:17:16.041Z,12.30
2019-01-28T10:19:42.919Z,10.57
2019-01-28T10:22:09.802Z,11.77
2019-01-28T10:24:36.558Z,11.37
2019-01-28T10:27:03.303Z,12.37
2019-01-28T10:29:29.881Z,10.37
2019-01-28T10:31:56.515Z,12.13
2019-01-28T10:34:23.157Z,10.03
2019-01-28T10:36:50.386Z,10.23
2019-01-28T10:39:17.346Z,11.63
2019-01-28T10:41:45.913Z,11.47
2019-01-28T10:44:12.493Z,10.90
2019-01-28T10:46:39.106Z,10.37
2019-01-28T10:49:05.820Z,9.83
2019-01-28T10:51:32.406Z,11.00
2019-01-28T10:53:58.840Z,9.80
2019-01-28T10:56:25.400Z,10.70
2019-01-28T10:58:51.775Z,9.83
2019-01-28T11:01:18.332Z,9.67
2019-01-28T11:07:08.421Z,10.50
2019-01-28T11:09:35.150Z,9.77
2019-01-28T11:12:01.752Z,8.87
2019-01-28T11:14:28.885Z,9.70
2019-01-28T11:16:56.023Z,9.03
2019-01-28T11:19:23.097Z,9.33
2019-01-28T11:21:50.053Z,9.67
2019-01-28T11:24:16.881Z,9.50
2019-01-28T11:26:45.232Z,17.33
2019-01-28T11:29:12.558Z,10.63
2019-01-28T11:31:39.639Z,9.00
2019-01-28T11:34:06.412Z,10.90
2019-01-28T11:36:33.006Z,10.77
2019-01-28T11:38:59.519Z,9.40
2019-01-28T11:41:39.092Z,8.90
2019-01-28T11:44:05.680Z,8.67
2019-01-28T11:46:32.523Z,9.80
2019-01-28T11:49:05.732Z,8.00
2019-01-28T11:51:28.473Z,9.13
2019-01-28T11:53:55.142Z,9.47
2019-01-28T11:56:21.486Z,8.57
2019-01-28T11:58:48.107Z,10.33
2019-01-28T12:01:17.061Z,8.20
2019-01-28T12:03:43.829Z,8.03
2019-01-28T12:06:10.837Z,10.17
2019-01-28T12:08:37.554Z,8.97
2019-01-28T12:11:04.288Z,7.47
2019-01-28T12:13:30.602Z,8.47
2019-01-28T12:15:57.200Z,8.57
2019-01-28T12:18:23.790Z,8.17
2019-01-28T12:20:53.610Z,7.83
2019-01-28T12:23:19.254Z,8.47
2019-01-28T12:25:45.906Z,7.40
2019-01-28T12:28:12.891Z,7.90
2019-01-28T12:30:40.001Z,8.00
2019-01-28T12:33:06.436Z,7.90
2019-01-28T12:35:33.260Z,8.10
2019-01-28T12:37:59.939Z,9.20
2019-01-28T12:40:26.838Z,8.20
2019-01-28T12:42:53.387Z,8.67
2019-01-28T12:45:27.218Z,8.00
2019-01-28T12:47:53.811Z,8.53
2019-01-28T12:50:22.352Z,10.13
2019-01-28T12:52:49.315Z,9.20
2019-01-28T12:55:17.713Z,9.17
2019-01-28T12:57:44.756Z,8.37
2019-01-28T13:00:25.870Z,8.30
2019-01-28T13:02:53.837Z,8.30
2019-01-28T13:05:24.226Z,9.43
2019-01-28T13:07:50.537Z,7.23
2019-01-28T13:10:21.875Z,7.60
2019-01-28T13:12:48.366Z,8.53
2019-01-28T13:15:20.929Z,8.03
2019-01-28T13:17:47.600Z,8.93
2019-01-28T13:20:14.281Z,7.40
2019-01-28T13:22:44.929Z,8.70
2019-01-28T13:25:13.075Z,9.03
2019-01-28T13:27:39.982Z,8.50
2019-01-28T13:30:10.313Z,9.20
2019-01-28T13:32:36.847Z,8.20
2019-01-28T13:35:04.443Z,8.30
2019-01-28T13:37:32.515Z,8.97
2019-01-28T13:39:59.129Z,8.07
2019-01-28T13:42:25.750Z,7.93
2019-01-28T13:44:52.447Z,6.93
2019-01-28T13:47:18.957Z,7.80
2019-01-28T13:49:45.498Z,8.13
2019-01-28T13:52:12.112Z,7.70
2019-01-28T13:54:38.466Z,7.80
2019-01-28T13:57:04.715Z,7.90
2019-01-28T13:59:31.113Z,7.43
2019-01-28T14:01:57.871Z,6.40
2019-01-28T14:04:24.282Z,8.13
2019-01-28T14:06:50.922Z,8.30
2019-01-28T14:09:17.227Z,8.03
2019-01-28T14:11:43.494Z,10.20
2019-01-28T14:14:10.318Z,7.80
2019-01-28T14:16:36.866Z,7.20
2019-01-28T14:19:03.496Z,6.43
2019-01-28T14:21:29.988Z,6.77
2019-01-28T14:23:56.971Z,9.60
2019-01-28T14:26:23.527Z,9.60
2019-01-28T14:28:49.980Z,16.07
2019-01-28T14:31:16.560Z,8.57
2019-01-28T14:33:43.196Z,7.07
2019-01-28T14:36:10.057Z,9.30
2019-01-28T14:38:36.752Z,10.87
2019-01-28T14:41:03.168Z,8.47
2019-01-28T14:43:29.574Z,9.23
2019-01-28T14:45:56.202Z,11.13
2019-01-28T14:48:22.581Z,8.20
2019-01-28T14:50:48.983Z,8.00
2019-01-28T14:53:15.309Z,8.13
2019-01-28T14:55:41.698Z,6.70
2019-01-28T14:58:08.405Z,8.60
2019-01-28T15:00:40.635Z,7.93
2019-01-28T15:03:07.125Z,7.70
2019-01-28T15:05:34.138Z,6.80
2019-01-28T15:08:00.517Z,8.90
2019-01-28T15:10:27.054Z,7.73
2019-01-28T15:12:53.535Z,7.80
2019-01-28T15:15:31.661Z,7.97
2019-01-28T15:17:58.716Z,7.87
2019-01-28T15:20:25.355Z,9.10
2019-01-28T15:22:51.861Z,8.07
2019-01-28T15:25:18.204Z,8.60
2019-01-28T15:27:44.470Z,8.60
2019-01-28T15:30:22.936Z,9.10
2019-01-28T15:32:49.701Z,8.17
2019-01-28T15:35:21.978Z,8.60
2019-01-28T15:37:48.797Z,9.73
2019-01-28T15:40:21.703Z,9.57
2019-01-28T15:42:48.443Z,28.03
2019-01-28T15:45:20.942Z,36.43
2019-01-28T15:47:47.452Z,12.60
2019-01-28T15:50:19.427Z,29.77
2019-01-28T15:52:46.115Z,16.57
2019-01-28T15:55:16.045Z,15.57
2019-01-28T15:57:42.508Z,16.73
2019-01-28T16:00:12.791Z,9.37
2019-01-28T16:02:39.168Z,9.63
2019-01-28T16:05:08.517Z,9.50
2019-01-28T16:07:35.154Z,9.00
2019-01-28T16:10:01.625Z,10.10
2019-01-28T16:12:27.938Z,9.13
2019-01-28T16:14:55.969Z,9.43
2019-01-28T16:17:22.512Z,9.67
2019-01-28T16:19:49.249Z,8.27
2019-01-28T16:22:15.822Z,8.30
2019-01-28T16:24:42.652Z,8.27
2019-01-28T16:27:09.142Z,7.60
2019-01-28T16:29:35.577Z,9.00
2019-01-28T16:32:02.401Z,8.80
2019-01-28T16:34:29.011Z,14.37
2019-01-28T16:36:55.867Z,9.30
2019-01-28T16:39:22.338Z,9.63
2019-01-28T16:41:48.829Z,10.37
2019-01-28T16:44:15.299Z,8.87
2019-01-28T16:46:41.752Z,8.37
2019-01-28T16:49:08.236Z,8.50
2019-01-28T16:51:34.696Z,10.07
2019-01-28T16:54:01.041Z,9.20
2019-01-28T16:56:28.691Z,13.47
2019-01-28T16:58:55.765Z,23.17
2019-01-28T17:01:22.246Z,64.13
2019-01-28T17:03:49.308Z,32.93
2019-01-28T17:06:15.870Z,12.20
2019-01-28T17:08:42.418Z,21.43
2019-01-28T17:11:09.003Z,14.80
2019-01-28T17:13:35.695Z,16.57
2019-01-28T17:16:03.465Z,26.73
2019-01-28T17:18:30.132Z,38.53
2019-01-28T17:27:40.914Z,8.07
2019-01-28T17:33:45.818Z,7.40
2019-01-28T17:36:13.868Z,9.57
2019-01-28T17:42:04.198Z,10.70
2019-01-28T17:44:32.113Z,9.57
2019-01-28T17:46:58.785Z,9.70
2019-01-28T17:49:26.220Z,10.00
2019-01-28T17:51:52.658Z,10.30
2019-01-28T17:54:19.680Z,9.50
2019-01-28T17:56:46.950Z,9.53
2019-01-28T17:59:13.446Z,10.10
2019-01-28T18:01:40.152Z,10.40
2019-01-28T18:07:17.778Z,10.43
2019-01-28T18:09:44.494Z,17.73
2019-01-28T18:15:47.123Z,39.20
2019-01-28T18:18:13.676Z,37.60
2019-01-28T18:20:40.516Z,15.60
2019-01-28T18:23:09.801Z,22.03
2019-01-28T18:25:36.924Z,24.47
2019-01-28T18:28:04.805Z,45.90
2019-01-28T18:30:35.200Z,41.03
2019-01-28T18:33:01.708Z,14.50
2019-01-28T18:35:28.290Z,12.00
2019-01-28T18:37:54.997Z,19.20
2019-01-28T18:40:21.632Z,14.10
2019-01-28T18:42:48.499Z,11.70
2019-01-28T18:45:18.373Z,12.23
2019-01-28T18:47:45.030Z,10.30
2019-01-28T18:50:17.089Z,10.60
2019-01-28T18:52:43.790Z,11.70
2019-01-28T18:55:13.401Z,10.73
2019-01-28T18:57:39.747Z,10.40
2019-01-28T19:00:13.265Z,11.17
2019-01-28T19:02:39.699Z,10.30
2019-01-28T19:05:09.556Z,10.20
2019-01-28T19:07:37.811Z,12.33
2019-01-28T19:10:07.630Z,11.70
2019-01-28T19:12:35.890Z,11.80
2019-01-28T19:15:06.173Z,12.23
2019-01-28T19:17:34.458Z,11.33
2019-01-28T19:20:11.846Z,10.63
2019-01-28T19:26:12.711Z,11.40
2019-01-28T19:28:39.006Z,12.63
2019-01-28T19:31:05.454Z,11.43
2019-01-28T19:33:31.905Z,10.97
2019-01-28T19:38:57.981Z,11.77
2019-01-28T19:44:35.838Z,12.17
2019-01-28T19:50:26.936Z,11.87
2019-01-28T19:52:53.635Z,12.50
2019-01-28T19:55:22.018Z,12.70
2019-01-28T19:57:48.489Z,13.00
2019-01-28T20:00:23.374Z,13.10
2019-01-28T20:06:01.657Z,13.70
2019-01-28T20:08:27.939Z,13.67
2019-01-28T20:10:54.965Z,14.70
2019-01-28T20:13:21.544Z,15.40
2019-01-28T20:15:47.886Z,14.20
2019-01-28T20:18:15.101Z,15.67
2019-01-28T20:20:41.576Z,13.90
2019-01-28T20:23:07.885Z,14.17
2019-01-28T20:25:35.619Z,15.80
2019-01-28T20:28:02.296Z,16.57
2019-01-28T20:30:29.072Z,17.30
2019-01-28T20:32:55.445Z,15.03
2019-01-28T20:35:21.993Z,19.03
2019-01-28T20:41:12.168Z,15.77
2019-01-28T20:47:03.559Z,15.87
2019-01-28T20:52:53.203Z,15.80
2019-01-28T20:55:19.711Z,15.23
2019-01-28T20:57:46.207Z,18.20
2019-01-28T21:00:16.041Z,17.93
2019-01-28T21:02:42.274Z,18.67
2019-01-28T21:08:19.693Z,14.93
2019-01-28T21:14:09.539Z,13.80
2019-01-28T21:16:35.804Z,12.90
2019-01-28T21:19:02.336Z,10.10
2019-01-28T21:24:39.344Z,11.47
2019-01-28T21:27:05.770Z,10.80
2019-01-28T21:29:32.095Z,12.40
2019-01-28T21:31:58.558Z,10.93
2019-01-28T21:38:02.910Z,11.50
2019-01-28T21:40:29.382Z,11.63
2019-01-28T21:42:56.226Z,12.87
2019-01-28T21:45:22.914Z,12.10
2019-01-28T21:47:55.050Z,11.80
2019-01-28T21:50:23.562Z,11.30
2019-01-28T21:52:49.993Z,11.70
2019-01-28T21:55:16.378Z,10.60
2019-01-28T21:57:42.930Z,10.33
2019-01-28T22:03:33.457Z,8.10
2019-01-28T22:05:59.896Z,7.07
2019-01-28T22:08:26.404Z,6.73
2019-01-28T22:10:53.092Z,6.07
2019-01-28T22:13:20.140Z,7.67
2019-01-28T22:15:46.766Z,5.77
2019-01-28T22:18:13.299Z,5.60
2019-01-28T22:20:39.978Z,7.10
2019-01-28T22:23:06.512Z,6.27
2019-01-28T22:25:33.105Z,5.60
2019-01-28T22:27:59.490Z,5.93
2019-01-28T22:30:25.909Z,6.30
2019-01-28T22:32:52.303Z,6.00
2019-01-28T22:35:18.770Z,6.30
2019-01-28T22:37:45.387Z,6.10
2019-01-28T22:40:13.844Z,6.17
2019-01-28T22:42:40.600Z,6.47
2019-01-28T22:45:10.738Z,6.50
2019-01-28T22:47:37.476Z,6.53
2019-01-28T22:50:07.604Z,7.07
2019-01-28T22:55:45.222Z,7.60
2019-01-28T22:58:11.854Z,7.03
2019-01-28T23:00:48.968Z,7.00
2019-01-28T23:03:17.240Z,7.60
2019-01-28T23:05:43.761Z,7.97
2019-01-28T23:08:10.193Z,7.07
2019-01-28T23:10:36.908Z,7.93
2019-01-28T23:13:04.486Z,7.70
2019-01-28T23:15:31.268Z,8.50
2019-01-28T23:18:00.829Z,8.57
2019-01-28T23:20:27.618Z,8.10
2019-01-28T23:22:54.280Z,8.17
2019-01-28T23:25:20.651Z,7.50
2019-01-28T23:27:47.070Z,7.87
2019-01-28T23:30:13.685Z,7.20
2019-01-28T23:32:40.265Z,7.40
2019-01-28T23:35:07.885Z,8.07
2019-01-28T23:37:34.143Z,7.70
2019-01-28T23:40:00.440Z,8.70
2019-01-28T23:42:26.951Z,8.10
2019-01-28T23:44:53.215Z,8.90
2019-01-28T23:47:19.567Z,7.40
2019-01-28T23:49:45.872Z,8.07
2019-01-28T23:52:12.401Z,7.93
2019-01-28T23:54:38.896Z,8.07
2019-01-28T23:57:05.312Z,7.70
2019-01-28T23:59:31.616Z,8.30
